createdAt,value
2022-12-17T00:02:04.654Z,5.42
2022-12-17T00:07:18.324Z,5.77
2022-12-17T00:12:39.424Z,5.72
2022-12-17T00:17:51.805Z,4.94
2022-12-17T00:23:23.613Z,4.97
2022-12-17T00:28:56.040Z,5.08
2022-12-17T00:34:23.965Z,4.46
2022-12-17T00:39:40.184Z,4.49
2022-12-17T00:44:54.796Z,5.74
2022-12-17T00:50:04.945Z,5.04
2022-12-17T00:55:15.548Z,5.65
2022-12-17T01:00:28.257Z,5.11
2022-12-17T01:05:43.506Z,5.47
2022-12-17T01:11:12.414Z,5.20
2022-12-17T01:16:41.723Z,4.33
2022-12-17T01:22:08.402Z,4.67
2022-12-17T01:27:58.273Z,4.25
2022-12-17T01:33:27.224Z,4.82
2022-12-17T01:38:49.425Z,5.07
2022-12-17T01:44:00.425Z,4.99
2022-12-17T01:49:23.303Z,5.24
2022-12-17T01:54:38.127Z,5.39
2022-12-17T01:59:56.279Z,4.53
2022-12-17T02:05:07.056Z,5.31
2022-12-17T02:10:56.472Z,4.93
2022-12-17T02:16:32.596Z,3.83
2022-12-17T02:21:56.154Z,4.22
2022-12-17T02:27:42.743Z,5.28
2022-12-17T02:38:52.756Z,4.34
2022-12-17T02:44:06.206Z,4.99
2022-12-17T02:49:17.491Z,5.35
2022-12-17T02:54:41.076Z,4.06
2022-12-17T02:59:53.775Z,4.48
2022-12-17T03:05:27.519Z,4.80
2022-12-17T03:10:39.590Z,4.08
2022-12-17T03:16:12.302Z,5.28
2022-12-17T03:21:49.772Z,5.04
2022-12-17T03:27:14.824Z,5.24
2022-12-17T03:46:43.270Z,5.33
2022-12-17T04:04:46.195Z,4.29
2022-12-17T04:09:59.512Z,4.29
2022-12-17T04:15:15.428Z,3.85
2022-12-17T04:20:35.834Z,5.14
2022-12-17T04:25:46.615Z,3.97
2022-12-17T04:31:01.990Z,4.08
2022-12-17T04:36:22.646Z,4.43
2022-12-17T04:41:38.958Z,3.56
2022-12-17T04:47:23.831Z,3.82
2022-12-17T04:52:37.895Z,4.24
2022-12-17T04:57:51.775Z,4.89
2022-12-17T05:03:07.128Z,4.37
2022-12-17T05:08:24.503Z,4.68
2022-12-17T05:13:36.813Z,3.36
2022-12-17T05:18:56.025Z,3.36
2022-12-17T05:24:19.790Z,3.14
2022-12-17T05:29:31.498Z,3.45
2022-12-17T05:34:45.078Z,4.28
2022-12-17T05:39:55.748Z,3.81
2022-12-17T05:45:09.000Z,3.81
2022-12-17T05:50:21.728Z,2.62
2022-12-17T05:55:38.555Z,3.88
2022-12-17T06:00:51.846Z,3.89
2022-12-17T06:06:04.296Z,4.22
2022-12-17T06:11:18.086Z,2.81
2022-12-17T06:16:42.058Z,3.71
2022-12-17T06:21:54.689Z,3.49
2022-12-17T06:27:05.713Z,4.33
2022-12-17T06:32:21.919Z,4.32
2022-12-17T06:37:34.064Z,3.65
2022-12-17T06:42:44.842Z,4.07
2022-12-17T06:47:56.300Z,4.14
2022-12-17T06:53:17.491Z,3.67
2022-12-17T06:58:31.480Z,3.11
2022-12-17T07:03:42.557Z,4.02
2022-12-17T07:08:54.354Z,4.13
2022-12-17T07:14:04.788Z,4.67
2022-12-17T07:19:15.422Z,4.44
2022-12-17T07:24:29.068Z,4.83
2022-12-17T07:29:39.851Z,4.91
2022-12-17T07:34:50.739Z,4.67
2022-12-17T07:40:04.996Z,4.98
2022-12-17T07:45:15.757Z,4.80
2022-12-17T07:50:26.618Z,5.07
2022-12-17T07:55:50.062Z,4.83
2022-12-17T08:01:00.872Z,5.18
2022-12-17T08:06:11.428Z,5.23
2022-12-17T08:11:23.597Z,5.14
2022-12-17T08:16:34.207Z,4.83
2022-12-17T08:21:47.683Z,4.66
2022-12-17T08:26:59.811Z,5.01
2022-12-17T08:32:12.022Z,4.98
2022-12-17T08:37:23.070Z,4.53
2022-12-17T08:42:35.360Z,5.52
2022-12-17T08:47:46.555Z,5.61
2022-12-17T08:52:58.758Z,5.11
2022-12-17T08:58:31.807Z,5.92
2022-12-17T09:03:42.819Z,6.60
2022-12-17T09:09:00.680Z,6.59
2022-12-17T09:14:20.191Z,7.59
2022-12-17T09:19:31.655Z,8.32
2022-12-17T09:24:42.204Z,8.97
2022-12-17T09:29:56.558Z,9.56
2022-12-17T09:35:07.857Z,9.90
2022-12-17T09:40:20.028Z,10.26
2022-12-17T09:45:37.117Z,10.63
2022-12-17T09:50:50.536Z,10.61
2022-12-17T09:56:06.246Z,11.12
2022-12-17T10:01:21.214Z,10.53
2022-12-17T10:06:36.725Z,10.25
2022-12-17T10:11:49.552Z,10.34
2022-12-17T10:17:08.544Z,10.50
2022-12-17T10:22:27.733Z,10.76
2022-12-17T10:27:38.844Z,11.04
2022-12-17T10:32:50.637Z,11.68
2022-12-17T10:38:01.218Z,12.13
2022-12-17T10:43:11.741Z,12.23
2022-12-17T10:48:35.648Z,12.20
2022-12-17T10:53:46.077Z,12.21
2022-12-17T10:59:03.628Z,12.64
2022-12-17T11:04:17.217Z,12.46
2022-12-17T11:09:37.119Z,12.74
2022-12-17T11:14:49.132Z,13.06
2022-12-17T11:20:07.370Z,13.80
2022-12-17T11:25:24.891Z,14.18
2022-12-17T11:30:36.426Z,14.68
2022-12-17T11:35:57.845Z,14.74
2022-12-17T11:41:13.333Z,14.36
2022-12-17T11:46:35.692Z,14.00
2022-12-17T11:51:52.168Z,13.63
2022-12-17T11:57:08.946Z,13.30
2022-12-17T12:02:34.493Z,12.96
2022-12-17T12:07:56.781Z,13.29
2022-12-17T12:13:19.640Z,13.28
2022-12-17T12:18:42.115Z,13.12
2022-12-17T12:24:10.989Z,13.22
2022-12-17T12:29:34.186Z,12.99
2022-12-17T12:34:49.491Z,13.23
2022-12-17T12:40:10.259Z,13.18
2022-12-17T12:45:25.716Z,13.28
2022-12-17T12:50:41.402Z,13.22
2022-12-17T12:55:57.612Z,13.23
2022-12-17T13:01:13.337Z,12.70
2022-12-17T13:06:07.038Z,13.05
2022-12-17T13:11:12.132Z,13.07
2022-12-17T13:16:27.022Z,13.38
2022-12-17T13:21:29.692Z,13.39
2022-12-17T13:26:32.102Z,13.36
2022-12-17T13:31:28.889Z,12.93
2022-12-17T13:36:30.793Z,13.75
2022-12-17T13:41:31.238Z,13.85
2022-12-17T13:46:25.357Z,13.97
2022-12-17T13:51:20.656Z,13.83
2022-12-17T13:56:13.984Z,13.84
2022-12-17T14:01:15.166Z,13.87
2022-12-17T14:06:11.583Z,13.53
2022-12-17T14:11:22.384Z,13.64
2022-12-17T14:16:18.052Z,13.53
2022-12-17T14:21:12.008Z,13.09
2022-12-17T14:26:05.335Z,13.11
2022-12-17T14:36:23.884Z,12.37
2022-12-17T14:41:34.621Z,12.54
2022-12-17T14:46:28.154Z,12.40
2022-12-17T14:51:29.110Z,11.68
2022-12-17T14:56:24.789Z,11.77
2022-12-17T15:01:18.503Z,10.92
2022-12-17T15:06:16.643Z,11.28
2022-12-17T15:11:16.089Z,11.30
2022-12-17T15:16:18.971Z,11.19
2022-12-17T15:21:26.649Z,10.84
2022-12-17T15:26:41.030Z,10.05
2022-12-17T15:31:58.002Z,11.09
2022-12-17T15:36:51.595Z,10.34
2022-12-17T15:42:03.740Z,10.75
2022-12-17T15:47:05.598Z,9.92
2022-12-17T15:52:00.140Z,10.80
2022-12-17T15:56:56.388Z,10.10
2022-12-17T16:01:51.049Z,10.47
2022-12-17T16:06:44.651Z,10.38
2022-12-17T16:11:37.825Z,9.61
2022-12-17T16:16:55.439Z,10.38
2022-12-17T16:21:49.775Z,9.02
2022-12-17T16:26:45.269Z,10.13
2022-12-17T16:31:41.188Z,8.81
2022-12-17T16:36:34.672Z,10.09
2022-12-17T16:41:30.942Z,10.09
2022-12-17T16:46:30.077Z,10.13
2022-12-17T16:51:30.494Z,9.86
2022-12-17T16:56:25.431Z,10.19
2022-12-17T17:01:21.045Z,9.52
2022-12-17T17:06:14.724Z,10.12
2022-12-17T17:11:14.527Z,9.62
2022-12-17T17:16:09.891Z,9.50
2022-12-17T17:21:26.155Z,10.15
2022-12-17T17:26:21.135Z,9.81
2022-12-17T17:31:16.382Z,10.00
2022-12-17T17:36:12.226Z,10.11
2022-12-17T17:41:10.836Z,10.16
2022-12-17T17:46:10.258Z,10.31
2022-12-17T17:51:06.361Z,10.29
2022-12-17T17:56:04.274Z,9.64
2022-12-17T18:00:57.905Z,9.21
2022-12-17T18:05:57.813Z,10.27
2022-12-17T18:11:21.599Z,8.91
2022-12-17T18:16:21.688Z,10.18
2022-12-17T18:21:18.222Z,9.31
2022-12-17T18:26:21.447Z,10.10
2022-12-17T18:31:17.071Z,8.91
2022-12-17T18:36:15.379Z,9.92
2022-12-17T18:41:30.077Z,10.03
2022-12-17T18:46:23.722Z,10.03
2022-12-17T18:51:17.162Z,9.10
2022-12-17T18:56:16.661Z,9.82
2022-12-17T19:01:25.017Z,10.00
2022-12-17T19:06:20.081Z,9.38
2022-12-17T19:11:17.084Z,8.89
2022-12-17T19:16:12.653Z,10.16
2022-12-17T19:21:12.194Z,10.15
2022-12-17T19:26:08.635Z,9.30
2022-12-17T19:31:03.339Z,9.97
2022-12-17T19:36:05.137Z,9.27
2022-12-17T19:41:06.015Z,10.09
2022-12-17T19:46:11.904Z,8.90
2022-12-17T19:51:10.572Z,10.09
2022-12-17T19:56:14.065Z,9.85
2022-12-17T20:01:10.149Z,10.03
2022-12-17T20:06:03.941Z,10.02
2022-12-17T20:10:57.895Z,10.02
2022-12-17T20:16:19.502Z,9.93
2022-12-17T20:21:20.083Z,9.35
2022-12-17T20:26:20.619Z,9.21
2022-12-17T20:31:18.232Z,10.00
2022-12-17T20:36:19.925Z,9.78
2022-12-17T20:41:14.736Z,9.83
2022-12-17T20:46:13.746Z,9.24
2022-12-17T20:51:13.832Z,9.38
2022-12-17T20:56:09.473Z,9.46
2022-12-17T21:01:11.860Z,8.57
2022-12-17T21:06:12.555Z,9.59
2022-12-17T21:11:12.004Z,9.46
2022-12-17T21:16:08.066Z,9.58
2022-12-17T21:21:03.843Z,9.19
2022-12-17T21:26:04.041Z,8.51
2022-12-17T21:31:02.454Z,8.36
2022-12-17T21:36:07.845Z,8.97
2022-12-17T21:41:15.454Z,9.06
2022-12-17T21:46:12.651Z,9.18
2022-12-17T21:51:07.378Z,9.16
2022-12-17T21:56:05.877Z,8.40
2022-12-17T22:01:10.906Z,9.17
2022-12-17T22:06:14.306Z,9.03
2022-12-17T22:11:11.760Z,8.82
2022-12-17T22:16:09.249Z,8.60
2022-12-17T22:21:05.150Z,8.02
2022-12-17T22:25:58.420Z,8.97
2022-12-17T22:31:22.180Z,8.18
2022-12-17T22:39:01.541Z,8.40
2022-12-17T22:44:36.378Z,8.57
2022-12-17T22:47:02.227Z,8.05
2022-12-17T22:51:56.955Z,7.49
2022-12-17T22:57:35.033Z,8.39
2022-12-17T23:02:03.568Z,8.15
2022-12-17T23:06:58.344Z,7.83
2022-12-17T23:11:51.823Z,7.78
2022-12-17T23:16:45.810Z,7.12
2022-12-17T23:21:39.524Z,8.17
2022-12-17T23:26:36.761Z,7.86
2022-12-17T23:31:33.391Z,7.96
2022-12-17T23:36:27.638Z,7.47
2022-12-17T23:41:22.588Z,6.88
2022-12-17T23:46:18.301Z,7.71
2022-12-17T23:51:13.438Z,7.47
2022-12-17T23:56:11.193Z,7.75
